Time;durP1;ratioP1;P1;durP2;ratioP2;P2;SDS_P1;SDS_P2;PMS_P1;PMS_P2;Temp;Humidity;BMP_temperature;BMP_pressure;BME280_temperature;BME280_humidity;BME280_pressure;Samples;Min_cycle;Max_cycle;Signal;HPM_P1;HPM_P2
2022/10/15 00:01:24;;;;;;;6.70;5.20;;;;;;;12.31;65.49;95145.97;5139903;27;20186;-70
2022/10/15 00:03:51;;;;;;;5.85;5.25;;;;;;;12.29;65.47;95144.38;5121968;27;20191;-70
2022/10/15 00:06:21;;;;;;;5.43;4.88;;;;;;;12.30;65.58;95139.63;5139736;27;20203;-70
2022/10/15 00:08:48;;;;;;;4.80;4.20;;;;;;;12.28;65.42;95136.44;5121566;27;20195;-69
2022/10/15 00:11:16;;;;;;;4.15;3.80;;;;;;;12.27;65.58;95132.88;5121567;27;20207;-69
2022/10/15 00:13:44;;;;;;;4.20;3.83;;;;;;;12.28;65.35;95136.44;5121648;27;20236;-69
2022/10/15 00:16:13;;;;;;;4.50;3.60;;;;;;;12.28;65.65;95126.19;5121467;27;20206;-69
2022/10/15 00:18:41;;;;;;;4.10;3.80;;;;;;;12.29;65.96;95130.53;5121499;27;20203;-69
2022/10/15 00:21:09;;;;;;;3.78;3.47;;;;;;;12.30;65.91;95125.81;5121174;27;20214;-69
2022/10/15 00:23:38;;;;;;;3.67;3.38;;;;;;;12.27;65.81;95126.53;5139417;27;20183;-69
2022/10/15 00:26:07;;;;;;;4.03;3.63;;;;;;;12.25;66.00;95124.13;5139268;27;20191;-69
2022/10/15 00:28:34;;;;;;;3.72;3.42;;;;;;;12.23;66.21;95118.16;5121339;27;20191;-69
2022/10/15 00:31:02;;;;;;;3.72;3.42;;;;;;;12.25;66.64;95126.91;5121463;27;20215;-69
2022/10/15 00:33:29;;;;;;;4.05;3.63;;;;;;;12.25;66.83;95126.91;5120804;27;20209;-69
2022/10/15 00:36:02;;;;;;;4.70;3.70;;;;;;;12.30;66.61;95120.28;5139364;27;20505;-69
2022/10/15 00:38:29;;;;;;;4.15;3.75;;;;;;;12.31;66.45;95121.91;5139053;27;20618;-69
2022/10/15 00:40:58;;;;;;;3.75;3.33;;;;;;;12.34;66.49;95121.16;5138731;27;20190;-69
2022/10/15 00:43:42;;;;;;;5.15;3.50;;;;;;;12.33;66.66;95110.47;5121039;27;20205;-69
2022/10/15 00:46:17;;;;;;;4.25;3.88;;;;;;;12.37;66.48;95114.91;5121396;27;20195;-69
2022/10/15 00:48:44;;;;;;;3.88;3.40;;;;;;;12.37;66.63;95103.84;5120896;27;20201;-69
2022/10/15 00:51:11;;;;;;;4.38;3.67;;;;;;;12.38;66.64;95111.00;5120688;27;20223;-70
2022/10/15 00:53:38;;;;;;;3.83;3.40;;;;;;;12.38;66.80;95105.47;5119718;28;20223;-70
2022/10/15 00:56:07;;;;;;;3.72;3.40;;;;;;;12.36;66.86;95109.75;5120272;27;20201;-70
2022/10/15 00:58:34;;;;;;;3.78;3.47;;;;;;;12.36;66.79;95101.44;5120786;27;20585;-70
2022/10/15 01:01:01;;;;;;;3.75;3.45;;;;;;;12.36;66.93;95102.25;5120707;27;20187;-70
2022/10/15 01:03:28;;;;;;;4.03;3.63;;;;;;;12.35;67.02;95108.16;5121056;27;20200;-69
2022/10/15 01:05:55;;;;;;;4.25;3.85;;;;;;;12.34;67.02;95107.31;5120985;27;20202;-69
2022/10/15 01:08:22;;;;;;;3.90;3.60;;;;;;;12.33;67.38;95102.16;5138484;27;20179;-69
2022/10/15 01:11:02;;;;;;;4.57;4.18;;;;;;;12.35;67.20;95108.16;5138364;27;20214;-69
2022/10/15 01:13:35;;;;;;;6.47;4.28;;;;;;;12.37;67.30;95103.03;5120265;27;20199;-69
2022/10/15 01:16:10;;;;;;;4.55;3.97;;;;;;;12.34;67.52;95107.31;5120641;27;20537;-69
2022/10/15 01:18:40;;;;;;;4.68;4.28;;;;;;;12.33;67.53;95102.16;5137822;27;20247;-69
2022/10/15 01:21:13;;;;;;;3.85;3.55;;;;;;;12.32;67.87;95104.13;5120212;27;20191;-69
2022/10/15 01:24:28;;;;;;;4.30;3.90;;;;;;;12.33;68.17;95102.16;5119762;27;20210;-69
2022/10/15 01:27:28;;;;;;;4.68;4.28;;;;;;;12.32;67.79;95098.59;5055097;28;20197;-69
2022/10/15 01:30:18;;;;;;;5.40;4.30;;;;;;;12.35;67.82;95105.38;5118723;27;20223;-69
2022/10/15 01:32:49;;;;;;;4.20;3.90;;;;;;;12.35;68.01;95110.91;5137977;27;20183;-69
2022/10/15 01:35:22;;;;;;;5.07;3.92;;;;;;;12.33;68.12;95104.94;5120218;27;20201;-69
2022/10/15 01:37:52;;;;;;;5.65;4.10;;;;;;;12.30;68.43;95103.69;5119482;27;20207;-69
2022/10/15 01:40:22;;;;;;;4.03;3.63;;;;;;;12.31;68.42;95093.41;5119519;27;20195;-69
2022/10/15 01:42:53;;;;;;;4.95;4.28;;;;;;;12.32;68.45;95106.09;5137624;27;20187;-68
2022/10/15 01:45:28;;;;;;;5.63;4.03;;;;;;;12.28;69.10;95104.06;5137696;27;20198;-68
2022/10/15 01:47:56;;;;;;;4.88;4.38;;;;;;;12.28;68.97;95100.50;5119878;27;20209;-68
2022/10/15 01:50:26;;;;;;;4.30;4.00;;;;;;;12.26;69.01;95100.84;5119560;27;20226;-68
2022/10/15 01:52:55;;;;;;;4.63;4.25;;;;;;;12.28;68.81;95097.72;5119733;27;20202;-68
2022/10/15 01:55:23;;;;;;;4.30;3.90;;;;;;;12.26;68.88;95094.50;5119226;27;20218;-68
2022/10/15 01:57:51;;;;;;;4.93;3.60;;;;;;;12.26;69.08;95100.03;5119516;27;20195;-69
2022/10/15 02:00:18;;;;;;;4.55;4.15;;;;;;;12.26;69.27;95097.28;5137598;27;20623;-68
2022/10/15 02:02:46;;;;;;;4.13;3.72;;;;;;;12.24;69.42;95097.66;5119502;27;20209;-68
2022/10/15 02:05:16;;;;;;;5.47;4.20;;;;;;;12.23;69.38;95098.81;5136623;27;20607;-68
2022/10/15 02:07:47;;;;;;;5.57;4.30;;;;;;;12.22;69.14;95093.66;5119981;27;20199;-68
2022/10/15 02:10:20;;;;;;;5.03;4.20;;;;;;;12.24;69.37;95097.66;5137193;27;20199;-68
2022/10/15 02:12:53;;;;;;;4.40;4.00;;;;;;;12.24;69.15;95100.41;5119147;27;20199;-68
2022/10/15 02:15:26;;;;;;;4.53;4.15;;;;;;;12.24;69.33;95103.19;5137196;27;20267;-68
2022/10/15 02:17:58;;;;;;;4.40;4.00;;;;;;;12.24;69.41;95102.41;5119118;27;20191;-68
2022/10/15 02:20:31;;;;;;;4.07;3.70;;;;;;;12.25;69.62;95101.22;5118886;27;20195;-68
2022/10/15 02:23:02;;;;;;;5.50;4.57;;;;;;;12.24;69.41;95096.88;5137148;27;20182;-68
2022/10/15 02:25:29;;;;;;;4.15;3.75;;;;;;;12.24;69.66;95105.94;5136698;27;20187;-68
2022/10/15 02:27:57;;;;;;;4.82;4.18;;;;;;;12.24;69.29;95107.91;5136970;27;20197;-68
2022/10/15 02:30:24;;;;;;;4.38;3.88;;;;;;;12.20;69.59;95102.31;5119107;27;20561;-68
2022/10/15 02:32:55;;;;;;;5.15;4.40;;;;;;;12.20;69.48;95105.09;5119052;27;20187;-68
2022/10/15 02:35:23;;;;;;;4.30;3.88;;;;;;;12.18;69.63;95106.59;5136383;27;20194;-68
2022/10/15 02:37:52;;;;;;;4.10;3.70;;;;;;;12.18;69.62;95107.41;5137033;27;20187;-68
2022/10/15 02:40:21;;;;;;;4.22;3.92;;;;;;;12.16;69.48;95104.19;5136761;27;20191;-68
2022/10/15 02:42:49;;;;;;;4.97;4.47;;;;;;;12.12;69.78;95111.59;5118683;27;20269;-68
2022/10/15 02:45:16;;;;;;;4.20;3.90;;;;;;;12.13;69.86;95115.16;5118325;27;20203;-68
2022/10/15 02:47:44;;;;;;;4.22;3.85;;;;;;;12.12;69.53;95113.56;5118903;27;20198;-68
2022/10/15 02:50:13;;;;;;;4.65;4.25;;;;;;;12.13;69.57;95106.88;5118496;27;20219;-68
2022/10/15 02:52:40;;;;;;;4.47;4.07;;;;;;;12.13;69.74;95107.69;5136178;27;20191;-68
2022/10/15 02:55:07;;;;;;;4.97;4.25;;;;;;;12.15;70.19;95104.56;5116195;28;20188;-68
2022/10/15 02:57:35;;;;;;;4.53;4.20;;;;;;;12.16;70.24;95103.38;5115669;28;20191;-68
2022/10/15 03:00:02;;;;;;;4.15;3.70;;;;;;;12.18;70.15;95103.84;5081289;28;20207;-68
2022/10/15 03:02:29;;;;;;;4.85;3.65;;;;;;;12.17;70.04;95105.00;5097948;28;20611;-68
2022/10/15 03:04:56;;;;;;;4.53;3.70;;;;;;;12.15;70.50;95108.13;5097917;28;20200;-69
2022/10/15 03:07:24;;;;;;;4.07;3.72;;;;;;;12.14;70.30;95105.72;5115742;28;20245;-68
2022/10/15 03:09:51;;;;;;;4.18;3.80;;;;;;;12.12;70.02;95103.31;5115976;28;20187;-68
2022/10/15 03:12:19;;;;;;;4.20;3.85;;;;;;;12.08;70.51;95096.09;5115733;28;20500;-68
2022/10/15 03:14:46;;;;;;;4.88;4.30;;;;;;;12.09;70.51;95086.63;5115690;28;20208;-68
2022/10/15 03:17:13;;;;;;;5.10;4.00;;;;;;;12.09;70.71;95090.22;5114743;28;20202;-68
2022/10/15 03:19:40;;;;;;;4.65;3.58;;;;;;;12.10;70.51;95091.81;5115535;28;20195;-68
2022/10/15 03:22:07;;;;;;;4.35;3.95;;;;;;;12.10;70.63;95102.09;5115708;28;20184;-68
2022/10/15 03:24:35;;;;;;;5.20;4.35;;;;;;;12.08;70.25;95102.44;5115660;28;20199;-68
2022/10/15 03:27:02;;;;;;;4.60;3.97;;;;;;;12.04;70.56;95105.13;5115375;28;20179;-68
2022/10/15 03:29:28;;;;;;;5.20;4.00;;;;;;;12.02;70.72;95106.66;5115243;28;20191;-68
2022/10/15 03:31:56;;;;;;;4.47;4.07;;;;;;;12.01;70.85;95111.34;5115110;28;20219;-68
2022/10/15 03:34:23;;;;;;;4.55;4.15;;;;;;;12.01;70.72;95110.56;5115414;28;20184;-68
2022/10/15 03:36:50;;;;;;;4.63;4.22;;;;;;;12.01;70.89;95113.31;5097783;28;20195;-68
2022/10/15 03:39:16;;;;;;;4.40;3.90;;;;;;;12.01;70.49;95111.34;5097428;28;20192;-68
2022/10/15 03:41:45;;;;;;;4.70;4.20;;;;;;;11.99;70.77;95108.16;5115428;28;20195;-69
2022/10/15 03:44:13;;;;;;;5.85;4.45;;;;;;;11.99;70.86;95108.16;5097892;28;20203;-68
2022/10/15 03:46:40;;;;;;;5.47;4.45;;;;;;;12.02;70.72;95110.22;5097582;28;20211;-68
2022/10/15 03:49:07;;;;;;;5.90;4.80;;;;;;;12.03;70.88;95113.78;5115495;28;20194;-68
2022/10/15 03:51:33;;;;;;;5.75;5.03;;;;;;;12.03;70.78;95120.09;5115562;28;20210;-68
2022/10/15 03:54:00;;;;;;;5.80;5.20;;;;;;;12.04;70.80;95110.66;5114966;27;20238;-68
2022/10/15 03:56:27;;;;;;;6.00;5.00;;;;;;;12.06;70.84;95120.56;5115525;28;20199;-68
2022/10/15 03:58:55;;;;;;;5.60;5.00;;;;;;;12.04;70.80;95124.47;5097575;28;20196;-68
2022/10/15 04:01:22;;;;;;;5.97;5.38;;;;;;;12.01;71.21;95125.19;5097463;28;20199;-68
2022/10/15 04:03:51;;;;;;;8.57;5.80;;;;;;;11.99;71.04;95118.44;5097549;28;20200;-68
2022/10/15 04:06:18;;;;;;;6.50;5.00;;;;;;;11.99;71.07;95122.00;5115271;28;20203;-68
2022/10/15 04:08:45;;;;;;;6.22;5.00;;;;;;;11.99;71.37;95126.72;5096917;28;20646;-68
2022/10/15 04:11:12;;;;;;;6.05;4.90;;;;;;;11.97;71.38;95121.53;5097265;28;20216;-68
2022/10/15 04:13:39;;;;;;;5.30;4.80;;;;;;;11.96;71.54;95125.47;5097386;28;20554;-68
2022/10/15 04:16:07;;;;;;;5.80;5.20;;;;;;;11.94;71.59;95124.22;5097248;28;20199;-69
2022/10/15 04:18:34;;;;;;;4.95;4.45;;;;;;;11.93;71.33;95123.44;5097146;28;20203;-69
2022/10/15 04:21:01;;;;;;;5.85;5.00;;;;;;;11.92;71.66;95123.78;5114824;28;20608;-69
2022/10/15 04:23:28;;;;;;;4.90;4.40;;;;;;;11.94;71.70;95124.22;5097181;28;20207;-68
2022/10/15 04:25:58;;;;;;;5.30;4.80;;;;;;;11.93;71.27;95123.44;5097299;28;20195;-68
2022/10/15 04:28:25;;;;;;;5.80;5.30;;;;;;;11.93;71.63;95123.44;5097335;28;20228;-68
2022/10/15 04:30:56;;;;;;;5.65;4.93;;;;;;;11.91;71.89;95124.94;5118918;28;20212;-70
2022/10/15 04:33:25;;;;;;;6.57;5.85;;;;;;;11.91;71.61;95123.00;5118245;28;20558;-69
2022/10/15 04:35:59;;;;;;;6.32;5.05;;;;;;;11.93;71.55;95123.44;5119165;28;20195;-69
2022/10/15 04:38:26;;;;;;;6.00;5.18;;;;;;;11.91;71.69;95130.47;5118492;28;20184;-69
2022/10/15 04:40:59;;;;;;;5.93;5.22;;;;;;;11.91;71.42;95131.28;5118287;28;20176;-69
2022/10/15 04:43:27;;;;;;;5.50;5.00;;;;;;;11.89;71.67;95130.03;5118072;28;20176;-69
2022/10/15 04:45:57;;;;;;;5.38;4.80;;;;;;;11.89;71.55;95132.81;5100484;28;20199;-69
2022/10/15 04:48:25;;;;;;;5.60;4.72;;;;;;;11.91;71.69;95136.00;5118101;28;20608;-69
2022/10/15 04:50:52;;;;;;;6.30;5.10;;;;;;;11.89;71.70;95139.13;5118126;28;20225;-69
2022/10/15 04:53:19;;;;;;;5.30;4.80;;;;;;;11.90;71.75;95137.97;5118140;28;20236;-69
2022/10/15 04:55:46;;;;;;;8.18;5.00;;;;;;;11.93;71.84;95144.75;5100158;28;20204;-69
2022/10/15 04:58:12;;;;;;;6.05;4.72;;;;;;;11.91;71.63;95153.41;5100214;28;20191;-70
2022/10/15 05:00:39;;;;;;;7.80;7.05;;;;;;;11.92;71.66;95148.69;5100605;28;20195;-70
2022/10/15 05:03:06;;;;;;;9.00;7.90;;;;;;;11.94;71.61;95149.91;5100173;28;20192;-70
2022/10/15 05:05:35;;;;;;;7.38;6.68;;;;;;;11.96;72.20;95155.09;5099948;28;20196;-70
2022/10/15 05:08:02;;;;;;;7.03;5.47;;;;;;;11.96;71.90;95158.66;5118485;28;20184;-70
2022/10/15 05:10:29;;;;;;;6.57;5.00;;;;;;;12.00;71.96;95155.97;5117748;28;20211;-70
2022/10/15 05:12:56;;;;;;;6.50;5.72;;;;;;;11.98;71.53;95150.81;5099509;28;20656;-70
2022/10/15 05:15:23;;;;;;;5.80;5.30;;;;;;;11.96;71.54;95150.34;5117799;28;20199;-69
2022/10/15 05:17:50;;;;;;;7.53;5.10;;;;;;;11.98;71.82;95153.56;5117356;28;20493;-70
2022/10/15 05:20:17;;;;;;;6.85;5.80;;;;;;;11.99;71.49;95159.91;5100014;28;20204;-70
2022/10/15 05:22:45;;;;;;;5.68;4.70;;;;;;;12.00;71.70;95161.50;5100149;28;20661;-70
2022/10/15 05:25:12;;;;;;;5.97;5.05;;;;;;;11.99;71.79;95160.69;5099875;28;20703;-70
2022/10/15 05:27:39;;;;;;;5.93;5.10;;;;;;;12.00;71.48;95165.06;5099988;28;20196;-70
2022/10/15 05:30:06;;;;;;;6.55;5.30;;;;;;;12.02;72.01;95173.81;5117492;28;20192;-69
2022/10/15 05:32:33;;;;;;;6.22;5.63;;;;;;;12.06;71.67;95167.56;5099621;28;20208;-72
2022/10/15 05:35:00;;;;;;;8.45;5.60;;;;;;;12.07;71.49;95186.53;5099568;28;20195;-71
2022/10/15 05:37:27;;;;;;;6.13;5.55;;;;;;;12.06;71.34;95176.66;5117095;28;20195;-73
2022/10/15 05:39:55;;;;;;;6.95;5.88;;;;;;;11.97;71.21;95184.31;5098807;28;20191;-70
2022/10/15 05:42:21;;;;;;;8.50;5.90;;;;;;;11.87;71.88;95184.84;5099306;28;20203;-70
2022/10/15 05:44:48;;;;;;;6.93;5.63;;;;;;;11.81;71.93;95190.63;5099436;28;20206;-68
2022/10/15 05:47:15;;;;;;;6.68;5.55;;;;;;;11.83;72.14;95190.28;5117146;28;20191;-68
2022/10/15 05:49:42;;;;;;;6.45;5.75;;;;;;;11.82;71.92;95186.72;5117231;28;20199;-69
2022/10/15 05:52:08;;;;;;;6.15;5.55;;;;;;;11.83;71.99;95195.78;5099332;28;20212;-69
2022/10/15 05:54:35;;;;;;;6.38;5.78;;;;;;;11.84;71.54;95186.41;5115239;27;20237;-72
2022/10/15 05:57:04;;;;;;;7.25;5.65;;;;;;;11.88;71.99;95190.03;5119269;27;20202;-71
2022/10/15 05:59:30;;;;;;;6.70;6.05;;;;;;;11.90;72.13;95187.72;5119040;27;20535;-71
2022/10/15 06:01:57;;;;;;;7.63;5.70;;;;;;;11.93;71.63;95192.53;5137493;27;20183;-71
2022/10/15 06:04:24;;;;;;;6.20;5.10;;;;;;;11.93;71.59;95189.75;5119308;27;20252;-72
2022/10/15 06:06:51;;;;;;;6.70;6.00;;;;;;;11.97;70.96;95198.94;5137441;27;20183;-72
2022/10/15 06:09:18;;;;;;;6.78;5.40;;;;;;;11.95;71.10;95190.22;5137349;27;20495;-72
2022/10/15 06:11:44;;;;;;;6.22;5.63;;;;;;;11.92;71.28;95198.41;5119400;27;20210;-72
2022/10/15 06:14:13;;;;;;;6.97;5.60;;;;;;;11.89;71.01;95191.63;5136855;27;20732;-71
2022/10/15 06:16:39;;;;;;;5.93;5.35;;;;;;;11.94;70.89;95199.66;5137022;27;20180;-71
2022/10/15 06:19:06;;;;;;;7.07;6.28;;;;;;;11.95;71.01;95204.03;5137166;27;20186;-72
2022/10/15 06:21:33;;;;;;;6.72;5.75;;;;;;;11.97;71.43;95198.13;5137140;27;20198;-71
2022/10/15 06:23:59;;;;;;;7.32;5.93;;;;;;;12.00;71.38;95200.19;5136880;27;20183;-72
2022/10/15 06:26:26;;;;;;;9.90;6.47;;;;;;;12.06;71.00;95198.75;5119076;27;20200;-71
2022/10/15 06:28:54;;;;;;;8.98;8.02;;;;;;;12.10;70.97;95207.13;5119245;27;20195;-72
2022/10/15 06:31:22;;;;;;;7.60;6.68;;;;;;;12.10;70.81;95212.66;5119033;27;20254;-71
2022/10/15 06:33:49;;;;;;;9.65;7.78;;;;;;;12.13;70.93;95207.22;5137439;27;20256;-71
2022/10/15 06:36:16;;;;;;;7.80;7.00;;;;;;;12.13;71.88;95212.75;5137491;27;20183;-72
2022/10/15 06:38:43;;;;;;;9.05;8.10;;;;;;;12.15;71.20;95215.94;5118736;27;20233;-71
2022/10/15 06:41:11;;;;;;;10.23;7.78;;;;;;;12.21;71.49;95224.78;5136472;27;20205;-71
2022/10/15 06:43:38;;;;;;;6.97;6.28;;;;;;;12.27;71.26;95226.91;5118913;27;20194;-71
2022/10/15 06:46:06;;;;;;;6.28;5.25;;;;;;;12.36;71.47;95218.41;5119347;27;20198;-71
2022/10/15 06:48:35;;;;;;;6.55;5.40;;;;;;;12.47;70.94;95224.19;5118810;27;20528;-71
2022/10/15 06:51:02;;;;;;;5.90;5.20;;;;;;;12.47;70.32;95219.44;5118829;27;20202;-72
2022/10/15 06:53:30;;;;;;;7.40;5.78;;;;;;;12.51;70.33;95222.28;5118252;28;20234;-71
2022/10/15 06:55:57;;;;;;;7.72;5.65;;;;;;;12.56;70.47;95223.97;5136505;27;20183;-72
2022/10/15 06:58:25;;;;;;;6.10;5.40;;;;;;;12.67;70.51;95227.75;5136483;27;20256;-72
2022/10/15 07:00:51;;;;;;;6.13;5.47;;;;;;;12.73;69.99;95234.63;5118798;27;20220;-71
2022/10/15 07:03:18;;;;;;;6.05;5.45;;;;;;;12.71;69.53;95229.47;5136363;27;20195;-69
2022/10/15 07:05:46;;;;;;;5.72;5.07;;;;;;;12.66;69.36;95238.03;5118957;27;20194;-69
2022/10/15 07:08:13;;;;;;;7.20;5.60;;;;;;;12.72;70.01;95230.25;5136409;27;20183;-68
2022/10/15 07:10:40;;;;;;;7.65;5.53;;;;;;;12.76;69.95;95242.22;5136022;27;20603;-69
2022/10/15 07:13:06;;;;;;;8.73;5.05;;;;;;;12.75;69.32;95241.41;5118153;27;20226;-69
2022/10/15 07:15:34;;;;;;;7.32;5.80;;;;;;;12.77;69.32;95243.81;5117994;28;20206;-69
2022/10/15 07:18:01;;;;;;;7.10;6.40;;;;;;;12.82;69.51;95243.53;5117942;28;20199;-68
2022/10/15 07:20:29;;;;;;;6.93;6.20;;;;;;;12.90;69.31;95241.72;5136413;28;20225;-69
2022/10/15 07:22:59;;;;;;;7.10;5.25;;;;;;;12.81;68.03;95238.34;5118286;28;20190;-69
2022/10/15 07:25:26;;;;;;;8.02;6.28;;;;;;;12.85;68.54;95233.69;5118179;28;20187;-69
2022/10/15 07:27:54;;;;;;;7.25;6.10;;;;;;;12.98;69.65;95237.91;5136240;28;20179;-69
2022/10/15 07:30:21;;;;;;;6.15;5.55;;;;;;;13.07;67.30;95237.69;5118476;28;20194;-69
2022/10/15 07:32:48;;;;;;;9.82;6.88;;;;;;;13.09;67.80;95241.72;5118078;28;20227;-68
2022/10/15 07:35:15;;;;;;;7.47;6.43;;;;;;;13.12;68.39;95242.94;5136020;28;20183;-68
2022/10/15 07:37:42;;;;;;;6.65;5.95;;;;;;;13.19;66.84;95240.31;5118121;28;20195;-69
2022/10/15 07:40:11;;;;;;;6.50;5.90;;;;;;;13.20;66.19;95239.16;5136302;28;20179;-68
2022/10/15 07:42:39;;;;;;;6.55;5.75;;;;;;;13.08;65.80;95239.31;5118279;28;20195;-68
2022/10/15 07:45:07;;;;;;;6.22;5.53;;;;;;;13.06;66.37;95241.63;5117944;28;20203;-69
2022/10/15 07:47:34;;;;;;;6.32;5.43;;;;;;;13.14;65.57;95243.38;5135979;28;20198;-69
2022/10/15 07:50:00;;;;;;;6.25;5.28;;;;;;;13.27;66.29;95233.00;5117666;28;20206;-69
2022/10/15 07:52:27;;;;;;;7.25;4.88;;;;;;;13.51;66.22;95235.44;5135881;28;20206;-69
2022/10/15 07:54:54;;;;;;;7.22;5.53;;;;;;;13.71;66.85;95238.94;5135199;28;20239;-69
2022/10/15 07:57:22;;;;;;;6.53;5.63;;;;;;;13.90;67.05;95235.31;5135854;28;20183;-69
2022/10/15 07:59:49;;;;;;;7.30;5.47;;;;;;;13.94;65.44;95248.09;5135849;28;20198;-69
2022/10/15 08:02:16;;;;;;;7.45;5.45;;;;;;;14.03;65.57;95252.56;5117862;28;20191;-69
2022/10/15 08:04:43;;;;;;;8.20;5.68;;;;;;;14.05;64.97;95245.50;5138464;27;20190;-68
2022/10/15 08:07:10;;;;;;;8.10;7.30;;;;;;;13.97;65.05;95247.31;5121734;27;20183;-69
2022/10/15 08:09:37;;;;;;;7.40;6.05;;;;;;;13.95;65.21;95233.03;5121385;27;20195;-69
2022/10/15 08:12:05;;;;;;;6.45;5.40;;;;;;;14.07;66.56;95245.13;5139556;27;20210;-69
2022/10/15 08:14:34;;;;;;;7.60;5.80;;;;;;;14.18;64.78;95240.53;5121501;27;20210;-69
2022/10/15 08:17:01;;;;;;;7.38;5.38;;;;;;;14.19;64.35;95236.59;5139217;27;20185;-71
2022/10/15 08:19:31;;;;;;;6.85;5.80;;;;;;;14.20;63.47;95236.22;5121291;27;20214;-69
2022/10/15 08:21:58;;;;;;;5.57;5.03;;;;;;;14.13;63.39;95229.78;5120502;27;20259;-70
2022/10/15 08:24:25;;;;;;;5.15;4.50;;;;;;;14.20;64.73;95233.44;5121627;27;20286;-69
2022/10/15 08:26:52;;;;;;;5.97;4.85;;;;;;;14.34;63.92;95224.56;5121622;27;20190;-70
2022/10/15 08:29:18;;;;;;;5.53;5.03;;;;;;;14.43;62.64;95222.28;5121308;27;20526;-71
2022/10/15 08:31:46;;;;;;;6.13;5.15;;;;;;;14.49;62.74;95219.19;5139301;27;20203;-71
2022/10/15 08:34:13;;;;;;;5.45;4.95;;;;;;;14.58;63.13;95223.34;5138962;27;20227;-71
2022/10/15 08:36:40;;;;;;;7.57;5.63;;;;;;;14.73;61.95;95220.75;5121404;27;20212;-70
2022/10/15 08:39:08;;;;;;;11.05;6.35;;;;;;;14.81;62.62;95208.56;5138731;27;20209;-70
2022/10/15 08:41:38;;;;;;;6.53;5.45;;;;;;;14.83;61.06;95220.91;5120743;27;20227;-70
2022/10/15 08:44:06;;;;;;;5.38;4.88;;;;;;;14.73;60.59;95215.22;5139026;27;20183;-70
2022/10/15 08:46:36;;;;;;;6.50;5.82;;;;;;;14.78;62.73;95210.13;5138739;27;20191;-70
2022/10/15 08:49:05;;;;;;;6.53;5.93;;;;;;;14.95;62.75;95213.50;5138867;27;20190;-70
2022/10/15 08:51:40;;;;;;;6.25;5.65;;;;;;;15.01;60.87;95215.56;5120853;27;20179;-70
2022/10/15 08:54:11;;;;;;;6.32;5.22;;;;;;;14.84;59.60;95222.50;5108610;28;20239;-71
2022/10/15 08:56:40;;;;;;;5.43;4.90;;;;;;;14.78;60.77;95221.25;5100317;28;20200;-72
2022/10/15 08:59:17;;;;;;;5.90;5.28;;;;;;;14.87;60.26;95221.75;5118069;28;20184;-70
2022/10/15 09:01:50;;;;;;;6.47;4.70;;;;;;;15.01;61.13;95214.78;5117758;28;20685;-70
2022/10/15 09:04:24;;;;;;;5.90;5.30;;;;;;;15.14;59.16;95221.66;5100398;28;20195;-70
2022/10/15 09:06:55;;;;;;;6.22;5.07;;;;;;;15.25;60.57;95219.84;5118167;28;20192;-70
2022/10/15 09:09:30;;;;;;;5.90;5.40;;;;;;;15.41;60.52;95223.19;5100083;28;20192;-70
2022/10/15 09:11:59;;;;;;;6.63;6.03;;;;;;;15.50;59.40;95216.53;5118008;28;20191;-70
2022/10/15 09:14:29;;;;;;;7.68;7.00;;;;;;;15.52;59.34;95219.72;5117321;28;20184;-70
2022/10/15 09:17:00;;;;;;;6.47;5.90;;;;;;;15.59;59.25;95219.81;5099264;28;20305;-70
2022/10/15 09:19:29;;;;;;;5.60;4.95;;;;;;;15.53;57.99;95215.75;5117689;28;20199;-70
2022/10/15 09:21:56;;;;;;;5.72;5.18;;;;;;;15.58;58.71;95216.22;5117749;28;20195;-69
2022/10/15 09:24:26;;;;;;;6.10;5.50;;;;;;;15.64;59.11;95216.66;5117706;28;20196;-70
2022/10/15 09:27:00;;;;;;;5.30;4.78;;;;;;;15.76;57.13;95210.06;5099975;28;20324;-70
2022/10/15 09:29:30;;;;;;;5.45;4.63;;;;;;;15.93;56.00;95214.19;5099673;28;20207;-70
2022/10/15 09:32:04;;;;;;;4.82;4.43;;;;;;;16.06;55.73;95212.72;5117414;28;20188;-69
2022/10/15 09:34:36;;;;;;;4.80;4.00;;;;;;;16.07;54.18;95215.13;5099735;28;20290;-69
2022/10/15 09:37:08;;;;;;;5.18;4.68;;;;;;;16.05;55.54;95211.94;5117136;28;20202;-70
2022/10/15 09:39:44;;;;;;;4.78;4.30;;;;;;;16.15;55.01;95206.81;5117297;28;20207;-70
2022/10/15 09:42:20;;;;;;;5.07;4.15;;;;;;;16.23;54.05;95214.03;5099155;28;20200;-70
2022/10/15 09:44:47;;;;;;;4.97;4.30;;;;;;;16.34;54.18;95212.16;5099344;28;20203;-70
2022/10/15 09:47:16;;;;;;;4.68;4.28;;;;;;;16.40;53.56;95209.78;5099290;28;20507;-70
2022/10/15 09:49:45;;;;;;;4.70;4.30;;;;;;;16.41;52.55;95209.41;5099882;28;20592;-70
2022/10/15 09:52:17;;;;;;;4.65;4.07;;;;;;;16.45;53.87;95209.41;5099151;28;20196;-70
2022/10/15 09:54:52;;;;;;;4.45;3.65;;;;;;;16.53;52.18;95208.31;5116961;28;20227;-70
2022/10/15 09:57:21;;;;;;;4.88;4.35;;;;;;;16.61;50.82;95216.31;5099084;28;20202;-70
2022/10/15 09:59:56;;;;;;;4.85;4.18;;;;;;;16.65;49.82;95216.31;5116969;28;20180;-70
2022/10/15 10:02:24;;;;;;;4.35;3.95;;;;;;;16.66;50.54;95215.13;5099269;28;20200;-70
2022/10/15 10:04:53;;;;;;;5.10;4.45;;;;;;;16.65;50.47;95209.97;5098761;28;20535;-70
2022/10/15 10:07:30;;;;;;;5.13;4.63;;;;;;;16.70;50.38;95207.59;5116715;28;20200;-69
2022/10/15 10:10:00;;;;;;;4.68;4.22;;;;;;;16.78;51.17;95209.28;5116531;28;20199;-70
2022/10/15 10:12:28;;;;;;;5.20;4.68;;;;;;;16.89;50.88;95216.91;5116797;28;20192;-69
2022/10/15 10:14:57;;;;;;;5.28;4.78;;;;;;;16.75;50.42;95210.06;5116651;28;20199;-69
2022/10/15 10:17:25;;;;;;;4.22;3.83;;;;;;;16.75;51.04;95212.84;5116572;28;20196;-69
2022/10/15 10:20:15;;;;;;;4.72;4.32;;;;;;;16.84;52.40;95209.69;5098692;28;20199;-69
2022/10/15 10:22:47;;;;;;;5.20;4.70;;;;;;;17.00;51.23;95204.63;5116736;28;20187;-71
2022/10/15 10:25:29;;;;;;;5.07;4.45;;;;;;;17.02;48.55;95207.00;5098575;28;20196;-70
2022/10/15 10:27:57;;;;;;;4.82;4.32;;;;;;;16.87;48.30;95192.22;5098405;28;20187;-70
2022/10/15 10:30:24;;;;;;;6.13;5.22;;;;;;;16.91;50.25;95193.03;5098753;28;20192;-70
2022/10/15 10:32:55;;;;;;;6.25;4.60;;;;;;;16.91;49.40;95195.81;5116231;28;20581;-71
2022/10/15 10:35:26;;;;;;;5.18;4.68;;;;;;;16.97;48.85;95197.03;5116239;28;20195;-70
2022/10/15 10:37:53;;;;;;;4.75;4.20;;;;;;;16.98;49.59;95190.25;5097925;28;20203;-70
2022/10/15 10:40:23;;;;;;;5.00;4.50;;;;;;;17.08;47.47;95189.53;5116229;28;20198;-70
2022/10/15 10:43:11;;;;;;;4.80;4.28;;;;;;;17.16;47.43;95198.69;5116157;28;20187;-71
2022/10/15 10:45:38;;;;;;;4.63;3.92;;;;;;;17.24;48.91;95194.75;5116211;28;20187;-70
2022/10/15 10:48:18;;;;;;;4.72;4.05;;;;;;;17.31;47.45;95189.19;5116350;28;20199;-70
2022/10/15 10:50:46;;;;;;;3.92;3.58;;;;;;;17.37;47.98;95184.03;5115687;28;20203;-70
2022/10/15 10:53:22;;;;;;;3.97;3.22;;;;;;;17.48;47.38;95192.44;5102345;27;20234;-70
2022/10/15 10:55:49;;;;;;;3.63;3.33;;;;;;;17.54;46.39;95180.50;5136598;27;20186;-71
2022/10/15 10:58:20;;;;;;;4.15;3.63;;;;;;;17.59;45.70;95184.09;5136898;27;20191;-71
2022/10/15 11:00:48;;;;;;;3.80;3.40;;;;;;;17.63;45.11;95168.16;5118333;27;20198;-71
2022/10/15 11:03:22;;;;;;;4.22;3.92;;;;;;;17.54;47.36;95182.50;5136092;27;20190;-70
2022/10/15 11:05:55;;;;;;;4.97;3.83;;;;;;;17.50;48.07;95176.91;5119011;27;20202;-71
2022/10/15 11:08:28;;;;;;;3.90;3.60;;;;;;;17.59;47.54;95172.94;5136065;27;20183;-71
2022/10/15 11:11:00;;;;;;;4.63;4.22;;;;;;;17.68;46.86;95173.34;5118423;27;20615;-71
2022/10/15 11:13:40;;;;;;;4.00;3.60;;;;;;;17.74;49.40;95161.41;5118017;27;20511;-70
2022/10/15 11:16:11;;;;;;;4.00;3.60;;;;;;;17.85;47.68;95172.59;5136754;27;20208;-70
2022/10/15 11:18:54;;;;;;;4.97;4.00;;;;;;;17.79;48.03;95166.63;5118376;28;20260;-70
2022/10/15 11:21:29;;;;;;;4.32;3.60;;;;;;;17.82;47.06;95170.59;5136272;28;20187;-70
2022/10/15 11:24:11;;;;;;;4.20;3.75;;;;;;;17.82;47.42;95173.38;5118598;28;20186;-70
2022/10/15 11:26:48;;;;;;;3.90;3.50;;;;;;;17.76;46.14;95180.59;5118353;28;20202;-70
2022/10/15 11:29:19;;;;;;;3.88;3.58;;;;;;;17.56;46.22;95180.09;5118115;28;20271;-70
2022/10/15 11:31:53;;;;;;;3.85;3.47;;;;;;;17.38;47.96;95177.28;5118536;28;20198;-70
2022/10/15 11:34:31;;;;;;;4.72;3.70;;;;;;;17.24;48.04;95175.22;5118384;28;20207;-70
2022/10/15 11:37:11;;;;;;;4.03;3.63;;;;;;;17.14;48.72;95175.19;5136404;28;20214;-70
2022/10/15 11:39:50;;;;;;;4.68;3.72;;;;;;;16.99;47.99;95177.13;5138997;27;20179;-70
2022/10/15 11:42:20;;;;;;;3.50;3.20;;;;;;;16.74;47.14;95169.47;5140345;27;20186;-70
2022/10/15 11:45:06;;;;;;;4.45;3.53;;;;;;;16.54;47.61;95168.13;5122310;27;20264;-70